Observations

76.3 °F / 24.6 °C
Calm
93%
74.1°F / 23.4 °C
29.86" (1011 mb)
10 mile(s)
clear
2022.05.26 1140 UTC

Observations

Surface


Raw METARs

2022/05/26 11:40
PKWA 261140Z AUTO 00000KT 10SM CLR 25/23 A2986 RMK AO2 P0001 T02460234

Translated METAR

Kwajalein, Bucholz AAF, Kwajalein KMR ATOL Airport, Marshall Islands (PKWA) 08-43N 167-44E 2M
May 26, 2022 - 07:40 AM EDT / 2022.05.26 1140 UTC
Wind: Calm:0
Visibility: 10 mile(s):0
Sky conditions: clear
Precipitation last hour: 0.01 inches
Temperature: 76.3 F (24.6 C)
Dew Point: 74.1 F (23.4 C)
Relative Humidity: 93%
Pressure (altimeter): 29.86 in. Hg (1011 hPa)
ob: PKWA 261140Z AUTO 00000KT 10SM CLR 25/23 A2986 RMK AO2 P0001 T02460234
cycle: 11



Upper Air


Latest Skew-T

Skew T Diagram

Latest Data File